Time;durP1;ratioP1;P1;durP2;ratioP2;P2;SDS_P1;SDS_P2;PMS_P1;PMS_P2;Temp;Humidity;BMP_temperature;BMP_pressure;BME280_temperature;BME280_humidity;BME280_pressure;Samples;Min_cycle;Max_cycle;Signal;HPM_P1;HPM_P2
2022/12/19 00:01:27;;;;;;;16.85;11.65;;;21.70;55.30;;;;;;5041727;28;20555;-35
2022/12/19 00:03:56;;;;;;;14.95;11.18;;;21.70;55.30;;;;;;5041233;28;20191;-34
2022/12/19 00:06:23;;;;;;;13.60;10.82;;;21.70;55.30;;;;;;5047551;28;20196;-34
2022/12/19 00:08:51;;;;;;;11.98;10.50;;;21.60;55.30;;;;;;5045828;28;20203;-35
2022/12/19 00:11:21;;;;;;;13.48;10.07;;;21.60;55.40;;;;;;5044609;28;20207;-35
2022/12/19 00:13:47;;;;;;;15.93;11.05;;;21.60;55.40;;;;;;5041646;28;20210;-35
2022/12/19 00:16:16;;;;;;;15.05;12.43;;;21.60;55.50;;;;;;5047625;28;20697;-34
2022/12/19 00:18:46;;;;;;;15.05;12.00;;;21.50;55.40;;;;;;5044211;28;20201;-35
2022/12/19 00:21:15;;;;;;;15.63;11.70;;;21.50;55.50;;;;;;5044110;28;20555;-35
2022/12/19 00:23:42;;;;;;;17.02;11.43;;;21.50;55.60;;;;;;5044958;28;20207;-35
2022/12/19 00:26:15;;;;;;;19.92;12.85;;;21.50;55.70;;;;;;5043716;28;20211;-35
2022/12/19 00:28:43;;;;;;;14.85;11.23;;;21.50;55.70;;;;;;5044554;28;20203;-35
2022/12/19 00:31:11;;;;;;;12.32;10.73;;;21.40;55.70;;;;;;5046547;28;20204;-34
2022/12/19 00:33:37;;;;;;;12.52;11.15;;;21.40;55.60;;;;;;5042242;28;20204;-35
2022/12/19 00:36:09;;;;;;;14.88;11.57;;;21.40;55.70;;;;;;5053691;28;20204;-35
2022/12/19 00:38:36;;;;;;;16.02;12.00;;;21.40;55.70;;;;;;5046829;28;20200;-35
2022/12/19 00:41:07;;;;;;;17.35;12.23;;;21.40;55.70;;;;;;5044090;28;20223;-36
2022/12/19 00:43:34;;;;;;;14.77;11.70;;;21.40;55.80;;;;;;5046754;28;20196;-34
2022/12/19 00:46:02;;;;;;;12.93;11.02;;;21.30;55.70;;;;;;5048594;28;20662;-35
2022/12/19 00:48:30;;;;;;;12.98;11.07;;;21.30;55.70;;;;;;5047268;28;20279;-34
2022/12/19 00:51:00;;;;;;;15.15;10.43;;;21.40;55.80;;;;;;5049920;28;20202;-34
2022/12/19 00:53:28;;;;;;;15.70;10.90;;;21.40;55.80;;;;;;5046470;28;20609;-34
2022/12/19 00:55:55;;;;;;;16.35;11.13;;;21.30;55.90;;;;;;5052664;28;20198;-35
2022/12/19 00:58:23;;;;;;;13.52;9.55;;;21.30;55.90;;;;;;5057101;28;20199;-34
2022/12/19 01:00:49;;;;;;;13.68;9.75;;;21.30;55.80;;;;;;5050416;28;20227;-34
2022/12/19 01:03:16;;;;;;;11.82;10.20;;;21.30;55.90;;;;;;5047605;28;20215;-34
2022/12/19 01:05:43;;;;;;;18.08;10.00;;;21.30;55.80;;;;;;5051620;28;20203;-35
2022/12/19 01:08:09;;;;;;;13.10;10.05;;;21.30;55.70;;;;;;5054585;28;20186;-34
2022/12/19 01:10:37;;;;;;;14.98;9.85;;;21.30;55.70;;;;;;5060648;28;20200;-35
2022/12/19 01:13:03;;;;;;;11.35;9.10;;;21.40;55.70;;;;;;5046927;28;20568;-35
2022/12/19 01:15:30;;;;;;;11.13;9.43;;;21.40;55.60;;;;;;5050037;28;20195;-36
2022/12/19 01:17:57;;;;;;;13.18;10.02;;;21.40;55.50;;;;;;5046348;28;20821;-34
2022/12/19 01:20:23;;;;;;;11.68;9.10;;;21.40;55.50;;;;;;5045565;28;20216;-34
2022/12/19 01:22:50;;;;;;;13.23;8.93;;;21.40;55.50;;;;;;5047077;28;20199;-36
2022/12/19 01:25:17;;;;;;;12.45;9.13;;;21.40;55.30;;;;;;5049874;28;20195;-34
2022/12/19 01:27:45;;;;;;;13.43;9.07;;;21.50;55.40;;;;;;5044570;28;20600;-34
2022/12/19 01:30:13;;;;;;;12.70;8.48;;;21.50;55.30;;;;;;5039938;28;20278;-35
2022/12/19 01:32:40;;;;;;;10.88;8.27;;;21.50;55.30;;;;;;5049771;28;20191;-34
2022/12/19 01:35:07;;;;;;;12.00;8.32;;;21.50;55.10;;;;;;5048398;28;20191;-34
2022/12/19 01:37:34;;;;;;;9.30;8.18;;;21.60;55.10;;;;;;5049033;28;20227;-35
2022/12/19 01:40:00;;;;;;;12.50;8.48;;;21.50;55.00;;;;;;5047556;28;20218;-34
2022/12/19 01:42:36;;;;;;;12.15;9.05;;;21.50;54.90;;;;;;5046755;28;20195;-34
2022/12/19 01:45:24;;;;;;;14.07;8.13;;;21.60;55.00;;;;;;5048182;28;20201;-35
2022/12/19 01:47:55;;;;;;;9.77;7.97;;;21.60;54.90;;;;;;5049459;28;20245;-34
2022/12/19 01:50:28;;;;;;;10.40;8.75;;;21.60;54.80;;;;;;5047090;28;20196;-34
2022/12/19 01:52:57;;;;;;;11.98;8.50;;;21.60;54.80;;;;;;5054083;28;20188;-35
2022/12/19 01:55:24;;;;;;;11.68;7.93;;;21.60;54.80;;;;;;5053256;28;20191;-34
2022/12/19 01:57:53;;;;;;;11.07;8.43;;;21.70;54.70;;;;;;5056464;28;20206;-34
2022/12/19 02:00:21;;;;;;;10.50;7.88;;;21.70;55.20;;;;;;5048553;28;20223;-34
2022/12/19 02:02:53;;;;;;;9.15;7.95;;;21.60;54.60;;;;;;5051388;28;20199;-34
2022/12/19 02:05:20;;;;;;;8.90;7.35;;;21.60;54.60;;;;;;5052032;28;20195;-34
2022/12/19 02:07:48;;;;;;;11.52;7.53;;;21.60;54.70;;;;;;5052750;28;20191;-35
2022/12/19 02:10:14;;;;;;;10.02;7.63;;;21.60;54.60;;;;;;5052777;28;20194;-35
2022/12/19 02:12:44;;;;;;;11.00;8.32;;;21.60;54.60;;;;;;5047601;28;20741;-35
2022/12/19 02:15:13;;;;;;;11.38;8.50;;;21.50;54.60;;;;;;5052374;28;20219;-35
2022/12/19 02:17:49;;;;;;;9.77;7.60;;;21.60;54.60;;;;;;5049314;28;20647;-35
2022/12/19 02:20:58;;;;;;;10.13;7.68;;;21.60;54.60;;;;;;5049517;28;20211;-36
2022/12/19 02:24:02;;;;;;;11.68;8.23;;;21.50;54.50;;;;;;5029377;28;20642;-34
2022/12/19 02:27:05;;;;;;;8.75;6.50;;;21.60;54.60;;;;;;5053309;28;20296;-34
2022/12/19 02:30:01;;;;;;;8.95;8.02;;;21.50;54.50;;;;;;5042049;28;20204;-35
2022/12/19 02:32:34;;;;;;;9.20;7.32;;;21.50;54.50;;;;;;5044623;28;20561;-35
2022/12/19 02:35:07;;;;;;;11.25;8.30;;;21.50;54.40;;;;;;5039099;28;20667;-34
2022/12/19 02:37:38;;;;;;;7.05;6.30;;;21.50;54.40;;;;;;5043330;28;20200;-34
2022/12/19 02:40:09;;;;;;;11.50;8.25;;;21.50;54.10;;;;;;5049439;28;20215;-35
2022/12/19 02:42:40;;;;;;;9.95;7.70;;;21.50;54.60;;;;;;5042611;28;20644;-34
2022/12/19 02:45:10;;;;;;;8.07;6.95;;;21.50;54.60;;;;;;5049543;28;20258;-35
2022/12/19 02:47:39;;;;;;;8.32;6.63;;;21.50;54.50;;;;;;5050464;28;20212;-35
2022/12/19 02:50:07;;;;;;;8.63;7.55;;;21.50;54.40;;;;;;5047377;28;20195;-35
2022/12/19 02:52:47;;;;;;;6.75;6.22;;;21.50;54.40;;;;;;5042951;28;20196;-35
2022/12/19 02:55:18;;;;;;;9.50;6.65;;;21.50;54.50;;;;;;5046614;28;20195;-35
2022/12/19 02:58:02;;;;;;;10.05;7.18;;;21.50;54.40;;;;;;5045615;28;20209;-34
2022/12/19 03:00:29;;;;;;;8.98;7.07;;;21.50;54.50;;;;;;5046264;28;20536;-34
2022/12/19 03:03:08;;;;;;;10.70;7.28;;;21.40;54.40;;;;;;5047609;28;20202;-36
2022/12/19 03:05:45;;;;;;;8.25;7.45;;;21.50;54.40;;;;;;5047188;28;20187;-34
2022/12/19 03:08:20;;;;;;;9.27;7.95;;;21.50;54.40;;;;;;5048328;28;20191;-34
2022/12/19 03:10:53;;;;;;;10.70;7.38;;;21.50;54.40;;;;;;5053749;28;21124;-34
2022/12/19 03:13:24;;;;;;;10.25;7.45;;;21.50;54.40;;;;;;5046774;28;20203;-34
2022/12/19 03:15:52;;;;;;;7.03;6.10;;;21.50;54.30;;;;;;5053221;28;20192;-34
2022/12/19 03:18:20;;;;;;;9.07;6.65;;;21.50;54.40;;;;;;5053180;28;20666;-35
2022/12/19 03:20:50;;;;;;;8.75;6.65;;;21.50;54.40;;;;;;5053296;28;20598;-34
2022/12/19 03:23:17;;;;;;;7.32;6.18;;;21.50;54.40;;;;;;5057861;28;20555;-34
2022/12/19 03:25:49;;;;;;;10.20;7.22;;;21.50;54.40;;;;;;5044638;28;20204;-34
2022/12/19 03:28:21;;;;;;;8.95;6.80;;;21.50;54.30;;;;;;5051997;28;20706;-34
2022/12/19 03:30:48;;;;;;;10.07;8.00;;;21.50;54.40;;;;;;5053201;28;20218;-34
2022/12/19 03:33:18;;;;;;;7.00;6.30;;;21.50;54.40;;;;;;5046921;28;20663;-35
2022/12/19 03:35:48;;;;;;;7.28;6.57;;;21.50;54.30;;;;;;5048080;28;20679;-35
2022/12/19 03:38:18;;;;;;;7.82;6.65;;;21.50;54.20;;;;;;5050529;28;20206;-35
2022/12/19 03:40:47;;;;;;;10.95;6.95;;;21.50;54.20;;;;;;5047742;28;20230;-36
2022/12/19 03:43:15;;;;;;;9.93;6.22;;;21.50;54.30;;;;;;5046602;28;20629;-34
2022/12/19 03:45:48;;;;;;;9.55;6.50;;;21.50;54.30;;;;;;5047280;28;20199;-34
2022/12/19 03:48:18;;;;;;;11.48;7.22;;;21.50;54.20;;;;;;5044169;28;20191;-36
2022/12/19 03:50:54;;;;;;;7.13;5.63;;;21.50;54.30;;;;;;5048140;28;20215;-34
2022/12/19 03:53:33;;;;;;;6.68;6.05;;;21.50;54.20;;;;;;5046891;28;20605;-35
2022/12/19 03:56:08;;;;;;;6.78;5.15;;;21.50;54.20;;;;;;5047850;28;20204;-34
2022/12/19 03:58:40;;;;;;;9.23;5.80;;;21.50;54.20;;;;;;5045736;28;20269;-34
2022/12/19 04:01:07;;;;;;;7.38;5.50;;;21.50;54.30;;;;;;5047807;28;20220;-35
2022/12/19 04:03:35;;;;;;;9.43;5.75;;;21.50;54.20;;;;;;5049143;28;20642;-35
2022/12/19 04:06:05;;;;;;;6.65;6.00;;;21.50;54.20;;;;;;5049399;28;20665;-34
2022/12/19 04:08:33;;;;;;;9.07;6.55;;;21.50;54.20;;;;;;5049884;28;20597;-34
2022/12/19 04:11:04;;;;;;;6.32;5.50;;;21.50;54.20;;;;;;5053090;28;20234;-34
2022/12/19 04:13:35;;;;;;;6.10;5.50;;;21.50;54.10;;;;;;5051722;28;20199;-35
2022/12/19 04:16:11;;;;;;;9.32;7.30;;;21.50;54.10;;;;;;5051165;28;20673;-35
2022/12/19 04:18:40;;;;;;;7.03;6.13;;;21.50;54.10;;;;;;5049534;28;20191;-34
2022/12/19 04:21:14;;;;;;;5.60;4.88;;;21.50;54.20;;;;;;5054685;28;20231;-34
2022/12/19 04:23:45;;;;;;;6.18;5.55;;;21.50;54.20;;;;;;5057020;28;20194;-35
2022/12/19 04:26:14;;;;;;;7.05;5.03;;;21.50;54.10;;;;;;5053811;28;20659;-34
2022/12/19 04:28:45;;;;;;;8.45;5.63;;;21.60;54.10;;;;;;5051544;28;20317;-34
2022/12/19 04:31:14;;;;;;;6.50;5.72;;;21.60;54.10;;;;;;5050162;28;20195;-35
2022/12/19 04:33:40;;;;;;;5.97;5.18;;;21.50;54.70;;;;;;5046286;28;20201;-34
2022/12/19 04:36:10;;;;;;;7.28;5.65;;;21.50;54.20;;;;;;5046784;28;20202;-34
2022/12/19 04:38:36;;;;;;;7.72;5.30;;;21.40;54.10;;;;;;5053436;28;20188;-34
2022/12/19 04:41:03;;;;;;;9.38;6.20;;;21.30;54.30;;;;;;5043712;28;20218;-34
2022/12/19 04:43:30;;;;;;;6.97;5.45;;;21.10;54.40;;;;;;5047718;28;20192;-35
2022/12/19 04:45:57;;;;;;;7.38;5.68;;;21.00;54.60;;;;;;5049319;28;20210;-34
2022/12/19 04:48:23;;;;;;;8.90;5.97;;;20.90;54.70;;;;;;5046015;28;20195;-34
2022/12/19 04:50:50;;;;;;;7.10;5.35;;;20.80;54.90;;;;;;5058362;28;20207;-35
2022/12/19 04:53:18;;;;;;;6.35;5.75;;;20.70;55.00;;;;;;5062783;28;20200;-34
2022/12/19 04:55:45;;;;;;;9.90;6.13;;;20.80;55.00;;;;;;5055785;28;20193;-35
2022/12/19 04:58:11;;;;;;;8.13;6.15;;;20.90;54.90;;;;;;5053300;28;20191;-34
2022/12/19 05:00:38;;;;;;;8.38;6.57;;;21.00;54.80;;;;;;5051769;28;20208;-35
2022/12/19 05:03:05;;;;;;;6.68;5.57;;;21.20;54.60;;;;;;5049264;28;20196;-36
2022/12/19 05:05:32;;;;;;;6.75;4.78;;;21.40;54.40;;;;;;5047963;28;20203;-34
2022/12/19 05:07:58;;;;;;;7.03;5.32;;;21.50;54.20;;;;;;5050916;28;20690;-35
2022/12/19 05:10:26;;;;;;;5.32;4.65;;;21.60;54.10;;;;;;5048496;28;20195;-34
2022/12/19 05:12:54;;;;;;;7.35;6.10;;;21.70;54.00;;;;;;5049470;28;20199;-35
2022/12/19 05:15:21;;;;;;;6.13;5.22;;;21.80;53.90;;;;;;5047907;28;20635;-35
2022/12/19 05:17:47;;;;;;;9.02;6.20;;;21.70;53.90;;;;;;5049532;28;20701;-34
2022/12/19 05:20:14;;;;;;;6.18;4.95;;;21.80;54.00;;;;;;5049597;28;20799;-36
2022/12/19 05:22:41;;;;;;;6.75;5.90;;;21.80;53.70;;;;;;5053214;28;20805;-34
2022/12/19 05:25:09;;;;;;;7.97;6.00;;;21.80;53.80;;;;;;5049521;28;20218;-35
2022/12/19 05:27:37;;;;;;;6.15;4.80;;;21.70;53.80;;;;;;5046409;28;20683;-34
2022/12/19 05:30:04;;;;;;;5.45;4.95;;;21.70;53.90;;;;;;5049434;28;20207;-34
2022/12/19 05:32:32;;;;;;;6.43;4.57;;;21.80;53.90;;;;;;5049959;28;20199;-35
2022/12/19 05:34:59;;;;;;;5.88;5.30;;;21.80;53.80;;;;;;5050761;28;20238;-34
2022/12/19 05:37:25;;;;;;;5.60;5.07;;;21.80;53.70;;;;;;5054141;28;20197;-36
2022/12/19 05:39:52;;;;;;;7.82;5.80;;;21.80;53.70;;;;;;5056375;28;20209;-34
2022/12/19 05:42:19;;;;;;;6.50;5.20;;;21.80;53.70;;;;;;5044980;28;20220;-35
2022/12/19 05:44:47;;;;;;;5.43;4.93;;;21.80;53.80;;;;;;5047843;28;20209;-35
2022/12/19 05:47:13;;;;;;;5.60;4.63;;;21.80;53.80;;;;;;5049663;28;20195;-34
2022/12/19 05:49:40;;;;;;;6.70;5.43;;;21.70;53.80;;;;;;5047088;28;20278;-34
2022/12/19 05:52:07;;;;;;;5.57;4.95;;;21.70;53.90;;;;;;5048243;28;20203;-35
2022/12/19 05:54:34;;;;;;;5.85;4.45;;;21.60;53.90;;;;;;5048827;28;20203;-34
2022/12/19 05:57:00;;;;;;;4.97;4.50;;;21.60;54.00;;;;;;5047311;28;20682;-35
2022/12/19 05:59:27;;;;;;;5.70;5.10;;;21.50;54.10;;;;;;5047824;28;20187;-35
2022/12/19 06:01:55;;;;;;;6.07;4.80;;;21.50;54.10;;;;;;5042896;28;20222;-35
2022/12/19 06:04:22;;;;;;;5.05;4.53;;;21.40;54.10;;;;;;5048624;28;20191;-34
2022/12/19 06:06:48;;;;;;;9.30;5.35;;;21.40;54.30;;;;;;5056074;28;20580;-35
2022/12/19 06:09:15;;;;;;;4.63;4.22;;;21.40;54.30;;;;;;5053509;28;20202;-35
2022/12/19 06:11:42;;;;;;;5.10;4.60;;;21.30;54.30;;;;;;5052453;28;20217;-34
2022/12/19 06:14:08;;;;;;;6.20;5.05;;;21.30;54.30;;;;;;5052099;28;20196;-35
2022/12/19 06:16:35;;;;;;;5.82;4.45;;;21.30;54.40;;;;;;5048038;28;20568;-36
2022/12/19 06:19:03;;;;;;;5.70;4.57;;;21.30;54.40;;;;;;5051302;28;20200;-34
2022/12/19 06:21:30;;;;;;;3.92;3.55;;;21.30;54.40;;;;;;5059282;28;20225;-34
2022/12/19 06:23:57;;;;;;;4.63;4.25;;;21.30;54.50;;;;;;5060494;28;20540;-34
2022/12/19 06:26:23;;;;;;;5.05;4.57;;;21.30;54.40;;;;;;5059046;28;20203;-36
2022/12/19 06:28:51;;;;;;;6.53;4.13;;;21.30;55.00;;;;;;5046359;28;20203;-34
2022/12/19 06:31:19;;;;;;;5.80;4.68;;;21.30;54.40;;;;;;5053650;28;20217;-34
2022/12/19 06:33:46;;;;;;;5.07;4.63;;;21.40;54.40;;;;;;5049231;28;20287;-34
2022/12/19 06:36:19;;;;;;;5.13;4.63;;;21.40;54.30;;;;;;5045467;28;20195;-34
2022/12/19 06:38:46;;;;;;;4.38;3.22;;;21.40;54.30;;;;;;5048103;28;20660;-36
2022/12/19 06:43:58;;;;;;;5.20;4.65;;;21.40;54.30;;;;;;5046487;28;20325;-34
2022/12/19 06:46:25;;;;;;;5.03;4.53;;;21.40;54.20;;;;;;5042787;28;20198;-34
2022/12/19 06:48:52;;;;;;;5.35;4.22;;;21.40;54.20;;;;;;5045269;28;20223;-34
2022/12/19 06:51:20;;;;;;;4.78;4.05;;;21.40;54.20;;;;;;5047019;28;20222;-34
2022/12/19 06:53:47;;;;;;;6.30;4.50;;;21.40;54.40;;;;;;5046953;28;20196;-34
2022/12/19 06:56:15;;;;;;;5.20;4.20;;;21.50;54.40;;;;;;5048761;28;20247;-34
2022/12/19 06:58:42;;;;;;;5.78;4.25;;;21.40;54.20;;;;;;5046114;28;20358;-34
2022/12/19 07:01:16;;;;;;;3.83;3.53;;;21.50;54.20;;;;;;5047812;28;20196;-35
2022/12/19 07:03:43;;;;;;;6.50;4.65;;;21.50;54.20;;;;;;5048128;28;20675;-33
2022/12/19 07:06:09;;;;;;;5.45;3.95;;;21.50;54.20;;;;;;5050547;28;20848;-34
2022/12/19 07:08:37;;;;;;;8.55;4.18;;;21.50;54.10;;;;;;5048800;28;20278;-34
2022/12/19 07:11:04;;;;;;;4.72;4.20;;;21.40;54.10;;;;;;5046059;28;20200;-34
2022/12/19 07:13:31;;;;;;;5.88;4.15;;;21.50;54.10;;;;;;5046340;28;20197;-34
2022/12/19 07:15:59;;;;;;;5.05;4.25;;;21.40;54.00;;;;;;5047979;28;20191;-33
2022/12/19 07:18:26;;;;;;;4.68;3.90;;;21.50;54.20;;;;;;5047340;28;20656;-34
2022/12/19 07:20:53;;;;;;;4.50;3.80;;;21.50;54.10;;;;;;5046174;28;20216;-34
2022/12/19 07:23:22;;;;;;;3.42;3.13;;;21.40;54.10;;;;;;5048704;28;20699;-34
2022/12/19 07:25:50;;;;;;;4.53;3.78;;;21.50;54.20;;;;;;5054372;28;20576;-33
2022/12/19 07:28:17;;;;;;;4.00;3.70;;;21.50;54.10;;;;;;5048818;28;20917;-35
2022/12/19 07:30:43;;;;;;;5.82;3.85;;;21.50;54.10;;;;;;5052410;28;20682;-34
2022/12/19 07:33:10;;;;;;;4.43;3.80;;;21.50;54.10;;;;;;5049417;28;20226;-34
2022/12/19 07:35:37;;;;;;;4.68;4.28;;;21.50;54.10;;;;;;5045994;28;20196;-34
2022/12/19 07:38:04;;;;;;;3.88;3.40;;;21.40;54.20;;;;;;5046340;28;20195;-34
2022/12/19 07:40:32;;;;;;;5.25;4.30;;;21.40;54.10;;;;;;5053143;28;20198;-34
2022/12/19 07:43:00;;;;;;;4.63;3.65;;;21.40;54.20;;;;;;5050733;28;20222;-34
2022/12/19 07:45:28;;;;;;;4.50;4.10;;;21.30;54.30;;;;;;5052985;28;20332;-34
2022/12/19 07:47:54;;;;;;;5.03;3.70;;;21.30;54.40;;;;;;5045909;28;20195;-34
2022/12/19 07:50:22;;;;;;;5.22;3.83;;;21.40;54.30;;;;;;5051186;28;20226;-36
2022/12/19 07:52:49;;;;;;;4.95;4.50;;;21.40;54.20;;;;;;5053426;28;20229;-34
2022/12/19 07:55:15;;;;;;;4.15;3.55;;;21.40;54.20;;;;;;5050349;28;20196;-34
2022/12/19 07:57:42;;;;;;;5.80;4.22;;;21.40;54.20;;;;;;5052697;28;20197;-34
2022/12/19 08:00:11;;;;;;;5.00;3.92;;;21.40;54.20;;;;;;5050527;28;20192;-34
2022/12/19 08:02:38;;;;;;;4.10;3.70;;;21.40;54.20;;;;;;5049383;28;20219;-34
2022/12/19 08:05:05;;;;;;;3.53;3.20;;;21.40;54.20;;;;;;5049199;28;20638;-34
2022/12/19 08:07:32;;;;;;;3.92;3.60;;;21.40;54.30;;;;;;5050672;28;20208;-33
2022/12/19 08:09:59;;;;;;;5.97;3.75;;;21.40;54.30;;;;;;5053821;28;20195;-33
2022/12/19 08:12:26;;;;;;;3.95;3.55;;;21.40;54.30;;;;;;5049117;28;20218;-34
2022/12/19 08:14:53;;;;;;;5.03;3.50;;;21.30;54.30;;;;;;5053824;28;20216;-33
2022/12/19 08:17:21;;;;;;;4.05;3.67;;;21.30;54.30;;;;;;5047417;28;20202;-34
2022/12/19 08:19:48;;;;;;;4.15;3.58;;;21.30;54.30;;;;;;5047548;28;20247;-35
2022/12/19 08:22:15;;;;;;;4.90;3.47;;;21.30;54.40;;;;;;5050993;28;20220;-34
2022/12/19 08:24:41;;;;;;;4.13;3.67;;;21.40;54.40;;;;;;5053951;28;20574;-33
2022/12/19 08:27:08;;;;;;;4.38;3.97;;;21.40;54.30;;;;;;5049709;28;20202;-34
2022/12/19 08:29:35;;;;;;;3.70;3.40;;;21.40;54.40;;;;;;5044297;28;20290;-35
2022/12/19 08:32:01;;;;;;;4.43;3.78;;;21.50;54.50;;;;;;5048349;28;20203;-34
2022/12/19 08:34:30;;;;;;;4.13;3.67;;;21.50;54.20;;;;;;5050610;28;20208;-36
2022/12/19 08:36:56;;;;;;;4.70;3.65;;;21.40;54.30;;;;;;5050009;28;20198;-34
2022/12/19 08:39:23;;;;;;;3.40;3.10;;;21.40;54.40;;;;;;5050921;28;20191;-34
2022/12/19 08:41:50;;;;;;;4.07;3.50;;;21.30;54.50;;;;;;5050984;28;20488;-34
2022/12/19 08:44:16;;;;;;;4.40;4.10;;;21.30;54.50;;;;;;5048233;28;20219;-33
2022/12/19 08:46:44;;;;;;;4.22;3.45;;;21.20;54.50;;;;;;5040610;28;20578;-34
2022/12/19 08:49:11;;;;;;;5.47;3.67;;;21.10;54.50;;;;;;5049796;28;20297;-34
2022/12/19 08:51:39;;;;;;;4.60;3.83;;;21.00;54.60;;;;;;5049055;28;20196;-34
2022/12/19 08:54:05;;;;;;;3.58;3.17;;;21.00;54.90;;;;;;5050334;28;20199;-36
2022/12/19 08:56:32;;;;;;;9.38;3.42;;;20.80;55.10;;;;;;5049158;28;20199;-36
2022/12/19 08:58:59;;;;;;;5.40;3.70;;;20.80;55.40;;;;;;5049684;28;20571;-35
2022/12/19 09:01:26;;;;;;;3.90;3.60;;;20.80;55.50;;;;;;5044716;28;20233;-35
2022/12/19 09:03:53;;;;;;;4.78;4.07;;;20.80;55.60;;;;;;5049745;28;20215;-37
2022/12/19 09:06:20;;;;;;;4.10;3.80;;;20.90;55.50;;;;;;5053969;28;20223;-35
2022/12/19 09:08:48;;;;;;;3.85;3.53;;;20.90;55.50;;;;;;5044630;28;20206;-37
2022/12/19 09:11:17;;;;;;;4.57;3.00;;;21.00;55.40;;;;;;5050134;28;20211;-36
2022/12/19 09:13:44;;;;;;;4.22;3.35;;;21.00;55.30;;;;;;5047459;28;20196;-35
2022/12/19 09:16:12;;;;;;;3.55;3.25;;;21.10;55.30;;;;;;5052147;28;20195;-36
2022/12/19 09:18:40;;;;;;;4.35;3.42;;;21.20;55.20;;;;;;5052394;28;20204;-36
2022/12/19 09:21:07;;;;;;;3.40;3.13;;;21.30;55.10;;;;;;5056589;28;20586;-35
2022/12/19 09:23:34;;;;;;;3.90;3.13;;;21.40;54.80;;;;;;5047469;28;20247;-35
2022/12/19 09:26:06;;;;;;;4.13;3.40;;;21.50;54.80;;;;;;5062547;28;20204;-36
2022/12/19 09:28:33;;;;;;;3.42;2.95;;;21.50;54.50;;;;;;5042467;28;20649;-35
2022/12/19 09:31:03;;;;;;;3.38;2.88;;;21.50;54.50;;;;;;5045759;28;20191;-35
2022/12/19 09:33:31;;;;;;;3.08;2.75;;;21.50;54.50;;;;;;5046986;28;20202;-35
2022/12/19 09:35:59;;;;;;;3.17;2.78;;;21.50;54.50;;;;;;5054676;28;20205;-35
2022/12/19 09:38:28;;;;;;;3.33;3.03;;;21.50;54.50;;;;;;5048349;28;20218;-35
2022/12/19 09:41:09;;;;;;;3.08;2.75;;;21.50;54.50;;;;;;5054147;28;20188;-35
2022/12/19 09:43:50;;;;;;;3.60;3.30;;;21.40;54.40;;;;;;5042275;28;20226;-36
2022/12/19 09:46:20;;;;;;;3.38;3.08;;;21.40;54.50;;;;;;5047483;28;20192;-35
2022/12/19 09:48:52;;;;;;;2.80;2.60;;;21.40;54.50;;;;;;5044963;28;20187;-36
2022/12/19 09:51:30;;;;;;;2.80;2.60;;;21.40;54.60;;;;;;5055320;28;20200;-35
2022/12/19 09:54:01;;;;;;;3.30;2.80;;;21.30;54.50;;;;;;5047121;28;20203;-35
2022/12/19 09:56:36;;;;;;;3.45;2.65;;;21.30;54.60;;;;;;5056201;28;20289;-36
2022/12/19 09:59:12;;;;;;;3.65;2.60;;;21.20;54.60;;;;;;5051123;28;20199;-36
2022/12/19 10:01:49;;;;;;;3.38;3.05;;;21.20;54.70;;;;;;5047912;28;20501;-35
2022/12/19 10:04:18;;;;;;;3.72;2.90;;;21.20;54.70;;;;;;5044865;28;20202;-35
2022/12/19 10:06:45;;;;;;;2.65;2.30;;;21.20;54.70;;;;;;5051657;28;20223;-35
2022/12/19 10:09:13;;;;;;;4.00;3.60;;;21.20;54.70;;;;;;5048649;28;20195;-36
2022/12/19 10:11:55;;;;;;;2.55;2.35;;;21.20;54.70;;;;;;5047664;28;20664;-35
2022/12/19 10:14:43;;;;;;;5.03;2.45;;;21.10;54.70;;;;;;5047196;28;20203;-36
2022/12/19 10:17:20;;;;;;;3.85;3.00;;;21.10;54.80;;;;;;5046423;28;20195;-36
2022/12/19 10:20:00;;;;;;;4.65;3.30;;;21.10;54.80;;;;;;5046188;28;20221;-35
2022/12/19 10:22:36;;;;;;;3.03;2.40;;;21.10;54.80;;;;;;5050468;28;20227;-35
2022/12/19 10:25:21;;;;;;;3.10;2.67;;;21.10;54.80;;;;;;5046374;28;20208;-36
2022/12/19 10:27:55;;;;;;;2.47;2.28;;;21.10;54.90;;;;;;5045083;28;20198;-35
2022/12/19 10:30:23;;;;;;;3.47;2.78;;;21.10;54.90;;;;;;5046980;28;20600;-36
2022/12/19 10:33:01;;;;;;;2.63;2.30;;;21.10;54.90;;;;;;5052128;28;20267;-36
2022/12/19 10:35:33;;;;;;;3.17;2.60;;;21.10;54.90;;;;;;5046229;28;20559;-37
2022/12/19 10:38:13;;;;;;;2.92;2.63;;;21.00;54.80;;;;;;5046245;28;20192;-36
2022/12/19 10:40:45;;;;;;;3.58;2.35;;;21.00;54.80;;;;;;5050034;28;20651;-35
2022/12/19 10:43:22;;;;;;;7.35;3.22;;;21.10;54.80;;;;;;5045452;28;20227;-36
2022/12/19 10:45:52;;;;;;;4.60;2.25;;;21.10;54.80;;;;;;5048792;28;20203;-37
2022/12/19 10:48:21;;;;;;;2.40;2.20;;;21.10;54.80;;;;;;5041879;28;20223;-37
2022/12/19 10:50:49;;;;;;;2.80;2.50;;;21.50;54.80;;;;;;5048839;28;20698;-36
2022/12/19 10:53:17;;;;;;;17.65;2.60;;;21.90;54.60;;;;;;5045694;28;20204;-36
2022/12/19 10:55:45;;;;;;;5.03;2.92;;;22.40;53.80;;;;;;5052892;28;20218;-36
2022/12/19 10:58:21;;;;;;;4.50;2.85;;;22.60;53.40;;;;;;5044037;28;20195;-37
2022/12/19 11:01:03;;;;;;;5.10;2.10;;;22.70;53.20;;;;;;5048413;28;20210;-35
2022/12/19 11:03:31;;;;;;;6.22;2.75;;;22.90;53.10;;;;;;5045024;28;20746;-36
2022/12/19 11:05:58;;;;;;;2.92;2.63;;;23.00;52.90;;;;;;5048310;28;20188;-35
2022/12/19 11:08:26;;;;;;;2.47;2.28;;;23.10;52.90;;;;;;5044863;28;20204;-37
2022/12/19 11:10:55;;;;;;;3.50;2.67;;;23.20;52.70;;;;;;5039300;28;20215;-38
2022/12/19 11:13:26;;;;;;;2.60;2.30;;;23.00;53.00;;;;;;5048962;28;20199;-40
2022/12/19 11:15:54;;;;;;;4.35;2.67;;;22.80;53.70;;;;;;5042006;28;20192;-40
2022/12/19 11:18:22;;;;;;;2.78;2.58;;;22.80;53.90;;;;;;5044971;28;20199;-40
2022/12/19 11:20:59;;;;;;;4.35;2.40;;;22.80;53.80;;;;;;5047579;28;20693;-40
2022/12/19 11:23:27;;;;;;;3.38;2.60;;;22.90;54.00;;;;;;5048622;28;20211;-40
2022/12/19 11:25:57;;;;;;;2.90;2.15;;;22.90;53.90;;;;;;5048915;28;20204;-40
2022/12/19 11:28:29;;;;;;;3.13;2.80;;;23.10;53.90;;;;;;5052154;28;20193;-40
2022/12/19 11:31:03;;;;;;;3.70;2.65;;;23.10;53.90;;;;;;5042117;28;20262;-41
2022/12/19 11:33:31;;;;;;;2.15;1.80;;;23.20;53.80;;;;;;5046860;28;20236;-41
2022/12/19 11:36:00;;;;;;;3.40;2.47;;;23.20;53.90;;;;;;5047729;28;20196;-41
2022/12/19 11:38:36;;;;;;;3.03;2.83;;;23.20;53.90;;;;;;5048351;28;20214;-41
2022/12/19 11:41:14;;;;;;;2.58;2.38;;;23.20;54.00;;;;;;5043300;28;20211;-41
2022/12/19 11:43:50;;;;;;;2.90;2.60;;;23.10;54.00;;;;;;5040206;28;20230;-40
2022/12/19 11:46:32;;;;;;;2.60;2.08;;;23.10;54.10;;;;;;5032497;28;20710;-40
2022/12/19 11:49:04;;;;;;;5.90;2.58;;;23.10;54.20;;;;;;5047408;28;20213;-41
2022/12/19 11:51:38;;;;;;;2.17;1.98;;;23.10;54.30;;;;;;5050031;28;20207;-40
2022/12/19 11:54:13;;;;;;;3.20;2.70;;;23.10;54.40;;;;;;5055006;28;20622;-41
2022/12/19 11:56:40;;;;;;;2.35;2.15;;;23.00;54.40;;;;;;5049502;28;20245;-42
2022/12/19 11:59:16;;;;;;;2.53;1.98;;;23.00;54.50;;;;;;5050001;28;20200;-42
2022/12/19 12:01:59;;;;;;;2.53;2.20;;;23.00;54.60;;;;;;5053670;28;20206;-40
2022/12/19 12:05:01;;;;;;;2.42;2.22;;;22.90;54.60;;;;;;5045271;28;20709;-41
2022/12/19 12:07:34;;;;;;;3.95;2.53;;;22.90;54.60;;;;;;5043727;28;20192;-42
2022/12/19 12:10:11;;;;;;;3.08;2.55;;;22.90;54.60;;;;;;5043513;28;20199;-40
2022/12/19 12:12:51;;;;;;;3.90;2.33;;;22.90;54.70;;;;;;5050008;28;20198;-41
2022/12/19 12:15:46;;;;;;;5.13;2.45;;;22.90;54.70;;;;;;5045818;28;20188;-41
2022/12/19 12:18:25;;;;;;;9.48;2.08;;;22.90;54.80;;;;;;5043189;28;20230;-41
2022/12/19 12:21:00;;;;;;;3.22;2.35;;;22.90;54.80;;;;;;5046080;28;20223;-43
2022/12/19 12:23:32;;;;;;;2.45;1.80;;;22.90;54.80;;;;;;5046090;28;20218;-41
2022/12/19 12:26:07;;;;;;;2.90;2.00;;;22.80;54.80;;;;;;5043786;28;20200;-41
2022/12/19 12:28:55;;;;;;;1.77;1.63;;;22.80;54.90;;;;;;5049126;28;20193;-41
2022/12/19 12:31:38;;;;;;;3.17;2.33;;;22.70;54.90;;;;;;5049696;28;20555;-41
2022/12/19 12:34:28;;;;;;;2.60;2.40;;;22.60;55.00;;;;;;5050250;28;20199;-41
2022/12/19 12:37:05;;;;;;;2.83;2.00;;;22.60;55.20;;;;;;5040243;28;20204;-41
2022/12/19 12:39:40;;;;;;;2.17;1.98;;;22.60;55.20;;;;;;5051673;28;20200;-41
2022/12/19 12:42:20;;;;;;;3.17;2.60;;;22.70;55.10;;;;;;5049142;28;20215;-50
2022/12/19 12:44:50;;;;;;;4.75;2.45;;;22.90;55.10;;;;;;5049896;28;20233;-40
2022/12/19 12:47:23;;;;;;;2.75;2.55;;;23.00;54.90;;;;;;5050031;28;20202;-42
2022/12/19 12:49:54;;;;;;;3.03;2.55;;;23.20;54.80;;;;;;5050447;28;20237;-45
2022/12/19 12:52:29;;;;;;;3.25;2.70;;;23.30;54.60;;;;;;5044094;28;20548;-41
2022/12/19 12:54:57;;;;;;;3.75;2.40;;;23.40;54.60;;;;;;5054886;28;20203;-41
2022/12/19 12:57:34;;;;;;;3.45;2.60;;;23.40;54.50;;;;;;5047972;28;20199;-41
2022/12/19 13:00:26;;;;;;;4.03;3.30;;;23.40;54.50;;;;;;5049657;28;20600;-41
2022/12/19 13:02:58;;;;;;;3.40;2.40;;;23.50;54.50;;;;;;5050745;28;20200;-40